createdAt,value
2022-12-18T00:00:43.425Z,100589.67
2022-12-18T00:03:12.294Z,100587.10
2022-12-18T00:05:50.994Z,100589.06
2022-12-18T00:08:21.085Z,100589.80
2022-12-18T00:10:49.963Z,100594.09
2022-12-18T00:13:18.688Z,100593.72
2022-12-18T00:15:48.260Z,100595.55
2022-12-18T00:18:20.423Z,100601.19
2022-12-18T00:20:47.773Z,100599.47
2022-12-18T00:23:17.295Z,100604.86
2022-12-18T00:25:45.821Z,100614.64
2022-12-18T00:28:15.810Z,100610.60
2022-12-18T00:30:45.375Z,100618.07
2022-12-18T00:33:14.084Z,100618.56
2022-12-18T00:35:42.928Z,100628.59
2022-12-18T00:38:11.729Z,100621.98
2022-12-18T00:40:40.273Z,100630.55
2022-12-18T00:43:11.823Z,100625.66
2022-12-18T00:45:40.325Z,100626.39
2022-12-18T00:48:09.316Z,100638.02
2022-12-18T00:50:38.892Z,100637.16
2022-12-18T00:53:08.140Z,100635.93
2022-12-18T00:55:42.133Z,100639.97
2022-12-18T00:58:11.144Z,100643.14
2022-12-18T01:00:39.958Z,100656.97
2022-12-18T01:03:11.782Z,100651.82
2022-12-18T01:05:41.806Z,100662.22
2022-12-18T01:08:11.387Z,100665.77
2022-12-18T01:10:44.189Z,100661.73
2022-12-18T01:13:14.038Z,100656.09
2022-12-18T01:15:51.245Z,100671.34
2022-12-18T01:18:20.734Z,100658.73
2022-12-18T01:20:49.477Z,100678.78
2022-12-18T01:23:18.585Z,100675.96
2022-12-18T01:25:47.083Z,100678.15
2022-12-18T01:28:15.667Z,100696.14
2022-12-18T01:30:44.197Z,100692.10
2022-12-18T01:33:13.243Z,100697.48
2022-12-18T01:35:44.993Z,100694.19
2022-12-18T01:38:13.532Z,100706.41
2022-12-18T01:40:43.362Z,100713.62
2022-12-18T01:43:13.888Z,100707.87
2022-12-18T01:45:43.423Z,100707.25
2022-12-18T01:48:12.049Z,100710.04
2022-12-18T01:50:42.290Z,100707.58
2022-12-18T01:53:19.152Z,100718.45
2022-12-18T01:55:55.586Z,100718.45
2022-12-18T01:58:38.623Z,100722.95
2022-12-18T02:01:08.664Z,100714.98
2022-12-18T02:03:41.025Z,100727.05
2022-12-18T02:06:25.633Z,100720.93
2022-12-18T02:09:20.239Z,100727.28
2022-12-18T02:12:25.445Z,100727.17
2022-12-18T02:15:20.360Z,100729.48
2022-12-18T02:18:08.178Z,100738.52
2022-12-18T02:20:41.693Z,100735.58
2022-12-18T02:23:24.594Z,100743.38
2022-12-18T02:26:33.039Z,100735.80
2022-12-18T02:29:18.414Z,100735.69
2022-12-18T02:31:53.926Z,100752.05
2022-12-18T02:34:27.161Z,100753.02
2022-12-18T02:36:56.963Z,100754.25
2022-12-18T02:39:27.904Z,100755.59
2022-12-18T02:42:03.309Z,100757.65
2022-12-18T02:44:33.707Z,100760.34
2022-12-18T02:47:02.955Z,100756.31
2022-12-18T02:49:39.875Z,100778.07
2022-12-18T02:52:24.723Z,100772.81
2022-12-18T02:55:02.283Z,100780.50
2022-12-18T02:57:46.579Z,100788.98
2022-12-18T03:00:32.190Z,100794.58
2022-12-18T03:03:26.755Z,100801.41
2022-12-18T03:06:15.905Z,100805.92
2022-12-18T03:08:48.167Z,100812.27
2022-12-18T03:11:18.926Z,100824.21
2022-12-18T03:13:56.737Z,100829.70
2022-12-18T03:16:29.822Z,100824.21
2022-12-18T03:19:12.872Z,100832.05
2022-12-18T03:21:46.671Z,100836.95
2022-12-18T03:24:16.081Z,100843.55
2022-12-18T03:26:48.206Z,100848.92
2022-12-18T03:29:31.912Z,100852.69
2022-12-18T03:32:15.089Z,100852.27
2022-12-18T03:34:44.258Z,100858.20
2022-12-18T03:37:16.197Z,100857.66
2022-12-18T03:39:44.870Z,100854.55
2022-12-18T03:42:22.384Z,100856.97
2022-12-18T03:45:24.160Z,100862.23
2022-12-18T03:48:19.246Z,100868.09
2022-12-18T03:50:58.267Z,100867.07
2022-12-18T03:53:55.444Z,100882.06
2022-12-18T03:56:27.984Z,100881.30
2022-12-18T03:58:56.863Z,100878.67
2022-12-18T04:01:38.765Z,100895.00
2022-12-18T04:04:09.327Z,100909.88
2022-12-18T04:06:40.143Z,100900.58
2022-12-18T04:09:09.904Z,100911.61
2022-12-18T04:11:44.498Z,100915.25
2022-12-18T04:14:17.613Z,100914.87
2022-12-18T04:16:44.360Z,100917.56
2022-12-18T04:19:16.665Z,100919.66
2022-12-18T04:21:46.985Z,100926.75
2022-12-18T04:24:15.874Z,100929.73
2022-12-18T04:26:46.489Z,100935.38
2022-12-18T04:29:16.863Z,100935.87
2022-12-18T04:31:45.544Z,100947.09
2022-12-18T04:34:13.999Z,100948.92
2022-12-18T04:36:44.492Z,100961.00
2022-12-18T04:39:12.917Z,100962.14
2022-12-18T04:41:43.042Z,100951.23
2022-12-18T04:44:13.227Z,100965.14
2022-12-18T04:46:41.931Z,100975.87
2022-12-18T04:49:13.701Z,100974.84
2022-12-18T04:51:43.548Z,100978.21
2022-12-18T04:54:11.958Z,100982.34
2022-12-18T04:56:40.877Z,100985.51
2022-12-18T04:59:09.432Z,100992.42
2022-12-18T05:01:39.303Z,101000.48
2022-12-18T05:04:08.621Z,101002.58
2022-12-18T05:06:37.269Z,101006.91
2022-12-18T05:09:06.504Z,101001.84
2022-12-18T05:11:39.743Z,101003.02
2022-12-18T05:14:08.537Z,101004.18
2022-12-18T05:16:38.009Z,101012.61
2022-12-18T05:19:06.600Z,101028.61
2022-12-18T05:21:35.028Z,101033.67
2022-12-18T05:24:04.618Z,101035.78
2022-12-18T05:26:34.435Z,101048.44
2022-12-18T05:29:03.068Z,101044.72
2022-12-18T05:31:38.871Z,101044.81
2022-12-18T05:34:03.815Z,101051.14
2022-12-18T05:36:32.280Z,101052.97
2022-12-18T05:39:00.947Z,101064.84
2022-12-18T05:41:29.564Z,101072.89
2022-12-18T05:43:58.312Z,101074.23
2022-12-18T05:46:27.043Z,101084.41
2022-12-18T05:48:55.708Z,101089.39
2022-12-18T05:51:24.072Z,101097.83
2022-12-18T05:53:52.792Z,101094.95
2022-12-18T05:56:23.506Z,101102.44
2022-12-18T05:58:54.871Z,101099.95
2022-12-18T06:01:27.599Z,101109.44
2022-12-18T06:03:56.552Z,101116.44
2022-12-18T06:06:27.477Z,101123.62
2022-12-18T06:08:56.101Z,101126.11
2022-12-18T06:11:26.871Z,101133.01
2022-12-18T06:13:58.611Z,101133.77
2022-12-18T06:16:28.874Z,101131.48
2022-12-18T06:19:01.851Z,101137.14
2022-12-18T06:21:30.475Z,101159.94
2022-12-18T06:24:00.971Z,101156.48
2022-12-18T06:26:29.894Z,101157.16
2022-12-18T06:28:58.633Z,101155.72
2022-12-18T06:31:28.437Z,101152.47
2022-12-18T06:33:58.384Z,101158.70
2022-12-18T06:36:32.370Z,101162.63
2022-12-18T06:39:00.804Z,101172.78
2022-12-18T06:41:30.173Z,101173.45
2022-12-18T06:44:00.051Z,101180.63
2022-12-18T06:46:29.029Z,101186.29
2022-12-18T06:48:58.303Z,101177.77
2022-12-18T06:51:27.221Z,101189.36
2022-12-18T06:53:56.385Z,101190.61
2022-12-18T06:56:24.835Z,101190.03
2022-12-18T06:58:53.450Z,101199.42
2022-12-18T07:01:22.255Z,101201.34
2022-12-18T07:03:57.362Z,101210.05
2022-12-18T07:06:26.781Z,101205.73
2022-12-18T07:08:55.544Z,101221.27
2022-12-18T07:11:24.503Z,101214.84
2022-12-18T07:13:53.659Z,101229.60
2022-12-18T07:16:25.109Z,101217.33
2022-12-18T07:18:52.614Z,101211.35
2022-12-18T07:21:22.868Z,101232.23
2022-12-18T07:23:51.255Z,101221.21
2022-12-18T07:26:21.475Z,101229.16
2022-12-18T07:28:50.245Z,101236.16
2022-12-18T07:31:23.095Z,101240.00
2022-12-18T07:33:52.038Z,101255.61
2022-12-18T07:36:22.706Z,101260.21
2022-12-18T07:38:52.779Z,101269.59
2022-12-18T07:41:21.457Z,101275.67
2022-12-18T07:43:50.960Z,101274.39
2022-12-18T07:46:20.524Z,101278.22
2022-12-18T07:48:50.181Z,101282.61
2022-12-18T07:51:21.062Z,101299.17
2022-12-18T07:53:52.127Z,101293.99
2022-12-18T07:56:28.075Z,101313.34
2022-12-18T07:58:53.895Z,101305.00
2022-12-18T08:01:24.383Z,101295.40
2022-12-18T08:03:53.210Z,101308.91
2022-12-18T08:06:24.119Z,101310.16
2022-12-18T08:08:55.020Z,101308.54
2022-12-18T08:11:24.410Z,101321.77
2022-12-18T08:13:52.987Z,101323.31
2022-12-18T08:16:22.090Z,101329.16
2022-12-18T08:18:52.163Z,101334.70
2022-12-18T08:21:25.433Z,101344.75
2022-12-18T08:23:55.810Z,101348.86
2022-12-18T08:26:24.610Z,101345.70
2022-12-18T08:28:54.900Z,101362.17
2022-12-18T08:31:24.572Z,101355.20
2022-12-18T08:33:53.752Z,101356.07
2022-12-18T08:36:24.611Z,101358.84
2022-12-18T08:38:55.591Z,101360.27
2022-12-18T08:41:25.425Z,101353.27
2022-12-18T08:44:12.689Z,101353.66
2022-12-18T08:46:43.798Z,101355.68
2022-12-18T08:49:12.505Z,101361.43
2022-12-18T08:51:41.498Z,101358.57
2022-12-18T08:54:12.373Z,101368.34
2022-12-18T08:56:41.006Z,101369.13
2022-12-18T08:59:15.811Z,101378.95
2022-12-18T09:01:41.175Z,101386.31
2022-12-18T09:04:10.730Z,101386.02
2022-12-18T09:06:39.367Z,101386.10
2022-12-18T09:09:10.522Z,101385.54
2022-12-18T09:11:39.261Z,101383.45
2022-12-18T09:14:08.660Z,101399.37
2022-12-18T09:16:37.861Z,101404.08
2022-12-18T09:19:06.716Z,101396.03
2022-12-18T09:21:42.189Z,101398.72
2022-12-18T09:24:13.480Z,101399.58
2022-12-18T09:26:43.510Z,101397.67
2022-12-18T09:29:15.100Z,101405.63
2022-12-18T09:31:46.283Z,101409.95
2022-12-18T09:34:15.078Z,101408.14
2022-12-18T09:36:43.611Z,101408.95
2022-12-18T09:39:12.697Z,101426.69
2022-12-18T09:41:50.642Z,101423.73
2022-12-18T09:44:44.794Z,101412.80
2022-12-18T09:47:35.439Z,101432.76
2022-12-18T09:50:34.376Z,101437.65
2022-12-18T09:53:17.096Z,101444.53
2022-12-18T09:55:47.507Z,101437.31
2022-12-18T09:58:24.085Z,101440.47
2022-12-18T10:00:55.453Z,101434.06
2022-12-18T10:03:24.003Z,101442.89
2022-12-18T10:06:18.652Z,101436.18
2022-12-18T10:08:55.888Z,101450.07
